sensor_id;sensor_type;location;lat;lon;timestamp;pressure;altitude;pressure_sealevel;temperature;humidity
4598;BME280;62772;48.646;8.906;2023-03-04T00:04:09;96734.63;;;-1.67;100.00
4598;BME280;62772;48.646;8.906;2023-03-04T00:09:09;96741.47;;;-1.36;100.00
4598;BME280;62772;48.646;8.906;2023-03-04T00:14:09;96742.22;;;-1.59;100.00
4598;BME280;62772;48.646;8.906;2023-03-04T00:19:10;96741.97;;;-1.88;100.00
4598;BME280;62772;48.646;8.906;2023-03-04T00:24:10;96737.97;;;-1.60;100.00
4598;BME280;62772;48.646;8.906;2023-03-04T00:29:11;96739.34;;;-2.06;100.00
4598;BME280;62772;48.646;8.906;2023-03-04T00:34:11;96736.78;;;-1.94;100.00
4598;BME280;62772;48.646;8.906;2023-03-04T00:39:12;96738.53;;;-1.88;100.00
4598;BME280;62772;48.646;8.906;2023-03-04T00:44:13;96739.91;;;-1.86;100.00
4598;BME280;62772;48.646;8.906;2023-03-04T00:49:13;96732.84;;;-2.04;100.00
4598;BME280;62772;48.646;8.906;2023-03-04T00:54:14;96737.56;;;-1.75;100.00
4598;BME280;62772;48.646;8.906;2023-03-04T00:59:14;96737.44;;;-1.99;100.00
4598;BME280;62772;48.646;8.906;2023-03-04T01:04:14;96723.59;;;-1.69;100.00
4598;BME280;62772;48.646;8.906;2023-03-04T01:09:15;96727.25;;;-1.70;100.00
4598;BME280;62772;48.646;8.906;2023-03-04T01:14:15;96731.56;;;-2.13;100.00
4598;BME280;62772;48.646;8.906;2023-03-04T01:19:16;96721.66;;;-2.29;100.00
4598;BME280;62772;48.646;8.906;2023-03-04T01:24:17;96726.69;;;-1.91;100.00
4598;BME280;62772;48.646;8.906;2023-03-04T01:29:18;96720.69;;;-2.53;100.00
4598;BME280;62772;48.646;8.906;2023-03-04T01:34:18;96719.84;;;-2.29;100.00
4598;BME280;62772;48.646;8.906;2023-03-04T01:39:19;96721.44;;;-2.09;100.00
4598;BME280;62772;48.646;8.906;2023-03-04T01:44:19;96724.56;;;-2.01;100.00
4598;BME280;62772;48.646;8.906;2023-03-04T01:49:20;96725.31;;;-2.30;100.00
4598;BME280;62772;48.646;8.906;2023-03-04T01:54:21;96722.88;;;-2.50;100.00
4598;BME280;62772;48.646;8.906;2023-03-04T01:59:24;96713.16;;;-2.87;100.00
4598;BME280;62772;48.646;8.906;2023-03-04T02:04:28;96708.75;;;-3.18;100.00
4598;BME280;62772;48.646;8.906;2023-03-04T02:09:30;96702.69;;;-2.62;100.00
4598;BME280;62772;48.646;8.906;2023-03-04T02:14:31;96701.66;;;-2.61;100.00
4598;BME280;62772;48.646;8.906;2023-03-04T02:24:38;96696.16;;;-2.52;100.00
4598;BME280;62772;48.646;8.906;2023-03-04T02:29:40;96695.22;;;-2.40;100.00
4598;BME280;62772;48.646;8.906;2023-03-04T02:34:46;96688.75;;;-2.56;100.00
4598;BME280;62772;48.646;8.906;2023-03-04T02:39:48;96695.03;;;-2.63;100.00
4598;BME280;62772;48.646;8.906;2023-03-04T02:44:59;96693.34;;;-2.76;100.00
4598;BME280;62772;48.646;8.906;2023-03-04T02:50:00;96706.06;;;-3.05;100.00
4598;BME280;62772;48.646;8.906;2023-03-04T02:55:00;96702.00;;;-2.76;100.00
4598;BME280;62772;48.646;8.906;2023-03-04T03:00:01;96697.94;;;-2.71;100.00
4598;BME280;62772;48.646;8.906;2023-03-04T03:05:02;96697.97;;;-2.97;100.00
4598;BME280;62772;48.646;8.906;2023-03-04T03:10:03;96694.56;;;-2.79;100.00
4598;BME280;62772;48.646;8.906;2023-03-04T03:15:05;96700.06;;;-2.62;100.00
4598;BME280;62772;48.646;8.906;2023-03-04T03:20:08;96693.56;;;-2.78;100.00
4598;BME280;62772;48.646;8.906;2023-03-04T03:25:10;96702.38;;;-2.97;100.00
4598;BME280;62772;48.646;8.906;2023-03-04T03:30:13;96702.84;;;-3.32;100.00
4598;BME280;62772;48.646;8.906;2023-03-04T03:35:14;96700.34;;;-3.20;100.00
4598;BME280;62772;48.646;8.906;2023-03-04T03:40:15;96703.78;;;-3.90;100.00
4598;BME280;62772;48.646;8.906;2023-03-04T03:45:15;96691.91;;;-3.86;100.00
4598;BME280;62772;48.646;8.906;2023-03-04T03:50:16;96699.63;;;-3.59;100.00
4598;BME280;62772;48.646;8.906;2023-03-04T03:55:16;96696.06;;;-3.72;100.00
4598;BME280;62772;48.646;8.906;2023-03-04T04:00:17;96694.34;;;-3.53;100.00
4598;BME280;62772;48.646;8.906;2023-03-04T04:05:18;96696.84;;;-3.39;100.00
4598;BME280;62772;48.646;8.906;2023-03-04T04:10:19;96698.91;;;-3.16;100.00
4598;BME280;62772;48.646;8.906;2023-03-04T04:15:20;96696.59;;;-3.31;100.00
4598;BME280;62772;48.646;8.906;2023-03-04T04:20:23;96693.44;;;-3.72;100.00
4598;BME280;62772;48.646;8.906;2023-03-04T04:25:24;96695.41;;;-4.06;100.00
4598;BME280;62772;48.646;8.906;2023-03-04T04:30:24;96694.41;;;-3.66;100.00
4598;BME280;62772;48.646;8.906;2023-03-04T04:35:25;96692.81;;;-3.67;100.00
4598;BME280;62772;48.646;8.906;2023-03-04T04:40:25;96690.69;;;-3.45;100.00
4598;BME280;62772;48.646;8.906;2023-03-04T04:45:26;96684.94;;;-3.29;100.00
4598;BME280;62772;48.646;8.906;2023-03-04T04:50:26;96691.69;;;-3.46;100.00
4598;BME280;62772;48.646;8.906;2023-03-04T04:55:27;96690.25;;;-3.74;100.00
4598;BME280;62772;48.646;8.906;2023-03-04T05:00:27;96686.38;;;-4.75;100.00
4598;BME280;62772;48.646;8.906;2023-03-04T05:05:28;96706.25;;;-4.94;100.00
4598;BME280;62772;48.646;8.906;2023-03-04T05:10:28;96696.28;;;-4.25;100.00
4598;BME280;62772;48.646;8.906;2023-03-04T05:15:28;96700.34;;;-4.43;100.00
4598;BME280;62772;48.646;8.906;2023-03-04T05:20:29;96696.47;;;-4.13;100.00
4598;BME280;62772;48.646;8.906;2023-03-04T05:25:29;96700.28;;;-4.23;100.00
4598;BME280;62772;48.646;8.906;2023-03-04T05:30:30;96694.06;;;-4.15;100.00
4598;BME280;62772;48.646;8.906;2023-03-04T05:35:30;96701.03;;;-4.94;100.00
4598;BME280;62772;48.646;8.906;2023-03-04T05:40:31;96703.81;;;-4.82;100.00
4598;BME280;62772;48.646;8.906;2023-03-04T05:45:32;96701.78;;;-4.60;100.00
4598;BME280;62772;48.646;8.906;2023-03-04T05:50:33;96708.84;;;-4.67;100.00
4598;BME280;62772;48.646;8.906;2023-03-04T05:55:33;96708.38;;;-4.44;100.00
4598;BME280;62772;48.646;8.906;2023-03-04T06:00:34;96705.28;;;-4.14;100.00
4598;BME280;62772;48.646;8.906;2023-03-04T06:05:34;96718.84;;;-4.58;100.00
4598;BME280;62772;48.646;8.906;2023-03-04T06:10:35;96724.22;;;-4.46;100.00
4598;BME280;62772;48.646;8.906;2023-03-04T06:15:36;96727.06;;;-4.61;100.00
4598;BME280;62772;48.646;8.906;2023-03-04T06:20:37;96729.22;;;-4.44;100.00
4598;BME280;62772;48.646;8.906;2023-03-04T06:25:38;96741.13;;;-5.08;100.00
4598;BME280;62772;48.646;8.906;2023-03-04T06:30:38;96737.28;;;-4.59;100.00
4598;BME280;62772;48.646;8.906;2023-03-04T06:35:39;96751.13;;;-4.65;100.00
4598;BME280;62772;48.646;8.906;2023-03-04T06:40:39;96760.28;;;-4.23;100.00
4598;BME280;62772;48.646;8.906;2023-03-04T06:45:40;96755.88;;;-4.29;100.00
4598;BME280;62772;48.646;8.906;2023-03-04T06:50:41;96761.72;;;-4.53;100.00
4598;BME280;62772;48.646;8.906;2023-03-04T06:55:41;96767.34;;;-4.57;100.00
4598;BME280;62772;48.646;8.906;2023-03-04T07:00:43;96774.31;;;-4.24;100.00
4598;BME280;62772;48.646;8.906;2023-03-04T07:05:43;96767.66;;;-4.06;100.00
4598;BME280;62772;48.646;8.906;2023-03-04T07:10:44;96762.19;;;-3.98;100.00
4598;BME280;62772;48.646;8.906;2023-03-04T07:15:44;96764.19;;;-3.93;100.00
4598;BME280;62772;48.646;8.906;2023-03-04T07:20:44;96767.78;;;-3.81;100.00
4598;BME280;62772;48.646;8.906;2023-03-04T07:25:45;96770.47;;;-3.56;100.00
4598;BME280;62772;48.646;8.906;2023-03-04T07:30:47;96775.84;;;-3.44;100.00
4598;BME280;62772;48.646;8.906;2023-03-04T07:35:48;96779.59;;;-3.33;100.00
4598;BME280;62772;48.646;8.906;2023-03-04T07:40:55;96790.25;;;-3.35;100.00
4598;BME280;62772;48.646;8.906;2023-03-04T07:45:59;96781.13;;;-3.19;100.00
4598;BME280;62772;48.646;8.906;2023-03-04T07:51:06;96795.66;;;-2.98;100.00
4598;BME280;62772;48.646;8.906;2023-03-04T07:56:10;96805.25;;;-3.23;100.00
4598;BME280;62772;48.646;8.906;2023-03-04T08:01:13;96807.13;;;-3.31;100.00
4598;BME280;62772;48.646;8.906;2023-03-04T08:06:15;96808.72;;;-3.30;100.00
4598;BME280;62772;48.646;8.906;2023-03-04T08:11:19;96816.75;;;-3.31;100.00
4598;BME280;62772;48.646;8.906;2023-03-04T08:16:22;96821.91;;;-3.18;100.00
4598;BME280;62772;48.646;8.906;2023-03-04T08:21:23;96822.03;;;-3.06;100.00
4598;BME280;62772;48.646;8.906;2023-03-04T08:26:27;96817.59;;;-2.99;100.00
4598;BME280;62772;48.646;8.906;2023-03-04T08:31:29;96830.19;;;-2.89;100.00
4598;BME280;62772;48.646;8.906;2023-03-04T08:36:29;96836.97;;;-2.81;100.00
4598;BME280;62772;48.646;8.906;2023-03-04T08:41:30;96843.38;;;-2.77;100.00
4598;BME280;62772;48.646;8.906;2023-03-04T08:46:30;96839.00;;;-2.58;100.00
4598;BME280;62772;48.646;8.906;2023-03-04T08:51:32;96835.97;;;-2.55;100.00
4598;BME280;62772;48.646;8.906;2023-03-04T08:56:35;96845.00;;;-2.51;100.00
4598;BME280;62772;48.646;8.906;2023-03-04T09:01:35;96845.00;;;-2.51;100.00
4598;BME280;62772;48.646;8.906;2023-03-04T09:06:36;96845.94;;;-2.70;100.00
4598;BME280;62772;48.646;8.906;2023-03-04T09:11:36;96849.91;;;-2.36;100.00
4598;BME280;62772;48.646;8.906;2023-03-04T09:16:37;96852.09;;;-2.33;100.00
4598;BME280;62772;48.646;8.906;2023-03-04T09:21:37;96836.69;;;-2.16;100.00
4598;BME280;62772;48.646;8.906;2023-03-04T09:26:38;96851.84;;;-2.25;100.00
4598;BME280;62772;48.646;8.906;2023-03-04T09:31:38;96851.94;;;-2.13;100.00
4598;BME280;62772;48.646;8.906;2023-03-04T09:36:39;96850.31;;;-1.89;100.00
4598;BME280;62772;48.646;8.906;2023-03-04T09:41:45;96843.34;;;-1.76;100.00
4598;BME280;62772;48.646;8.906;2023-03-04T09:46:48;96851.78;;;-1.74;100.00
4598;BME280;62772;48.646;8.906;2023-03-04T09:56:59;96839.91;;;-1.58;100.00
4598;BME280;62772;48.646;8.906;2023-03-04T10:02:25;96841.50;;;-1.39;100.00
4598;BME280;62772;48.646;8.906;2023-03-04T10:07:33;96829.13;;;-1.32;100.00
4598;BME280;62772;48.646;8.906;2023-03-04T10:12:38;96835.22;;;-1.19;100.00
4598;BME280;62772;48.646;8.906;2023-03-04T10:17:44;96836.97;;;-1.32;100.00
4598;BME280;62772;48.646;8.906;2023-03-04T10:23:04;96841.84;;;-1.35;100.00
4598;BME280;62772;48.646;8.906;2023-03-04T10:28:15;96835.28;;;-1.26;100.00
4598;BME280;62772;48.646;8.906;2023-03-04T10:33:18;96830.94;;;-1.02;100.00
4598;BME280;62772;48.646;8.906;2023-03-04T10:38:21;96839.09;;;-0.80;100.00
4598;BME280;62772;48.646;8.906;2023-03-04T10:43:21;96827.16;;;-0.76;100.00
4598;BME280;62772;48.646;8.906;2023-03-04T10:48:27;96832.16;;;-0.74;100.00
4598;BME280;62772;48.646;8.906;2023-03-04T10:53:31;96830.59;;;-0.63;100.00
4598;BME280;62772;48.646;8.906;2023-03-04T10:58:35;96822.72;;;-0.63;100.00
4598;BME280;62772;48.646;8.906;2023-03-04T11:03:36;96821.28;;;-0.47;100.00
4598;BME280;62772;48.646;8.906;2023-03-04T11:08:39;96811.00;;;-0.49;100.00
4598;BME280;62772;48.646;8.906;2023-03-04T11:13:50;96811.34;;;-0.33;100.00
4598;BME280;62772;48.646;8.906;2023-03-04T11:18:54;96807.13;;;-0.11;100.00
4598;BME280;62772;48.646;8.906;2023-03-04T11:24:09;96796.19;;;-0.31;100.00
4598;BME280;62772;48.646;8.906;2023-03-04T11:29:28;96796.94;;;0.05;100.00
4598;BME280;62772;48.646;8.906;2023-03-04T11:40:15;96794.44;;;0.10;100.00
4598;BME280;62772;48.646;8.906;2023-03-04T11:45:48;96795.19;;;0.34;100.00
4598;BME280;62772;48.646;8.906;2023-03-04T11:50:53;96783.72;;;0.11;100.00
4598;BME280;62772;48.646;8.906;2023-03-04T11:56:12;96784.59;;;0.29;100.00
4598;BME280;62772;48.646;8.906;2023-03-04T12:01:26;96771.13;;;0.54;100.00
4598;BME280;62772;48.646;8.906;2023-03-04T12:12:01;96760.91;;;0.41;100.00
4598;BME280;62772;48.646;8.906;2023-03-04T12:17:27;96745.22;;;0.46;100.00
4598;BME280;62772;48.646;8.906;2023-03-04T12:22:43;96742.50;;;0.69;100.00
4598;BME280;62772;48.646;8.906;2023-03-04T12:44:18;96702.59;;;0.72;100.00
4598;BME280;62772;48.646;8.906;2023-03-04T12:49:40;96695.78;;;0.88;100.00
4598;BME280;62772;48.646;8.906;2023-03-04T12:54:46;96696.09;;;1.09;100.00
4598;BME280;62772;48.646;8.906;2023-03-04T13:10:37;96692.34;;;1.22;100.00
4598;BME280;62772;48.646;8.906;2023-03-04T13:15:38;96683.84;;;1.15;100.00
4598;BME280;62772;48.646;8.906;2023-03-04T13:20:39;96682.88;;;1.04;100.00
4598;BME280;62772;48.646;8.906;2023-03-04T13:25:45;96688.03;;;1.16;100.00
4598;BME280;62772;48.646;8.906;2023-03-04T13:36:03;96685.41;;;1.16;100.00
4598;BME280;62772;48.646;8.906;2023-03-04T13:41:25;96685.66;;;1.31;100.00
4598;BME280;62772;48.646;8.906;2023-03-04T13:46:40;96683.84;;;1.15;100.00
4598;BME280;62772;48.646;8.906;2023-03-04T13:51:42;96683.59;;;0.99;100.00
4598;BME280;62772;48.646;8.906;2023-03-04T13:56:45;96684.31;;;0.95;100.00
4598;BME280;62772;48.646;8.906;2023-03-04T14:07:34;96681.50;;;1.18;100.00
4598;BME280;62772;48.646;8.906;2023-03-04T14:17:48;96680.72;;;1.01;100.00
4598;BME280;62772;48.646;8.906;2023-03-04T14:22:49;96677.63;;;1.04;100.00
4598;BME280;62772;48.646;8.906;2023-03-04T14:28:10;96672.03;;;0.83;100.00
4598;BME280;62772;48.646;8.906;2023-03-04T14:33:15;96670.50;;;0.70;100.00
4598;BME280;62772;48.646;8.906;2023-03-04T14:38:24;96669.28;;;0.61;100.00
4598;BME280;62772;48.646;8.906;2023-03-04T14:43:26;96665.16;;;0.82;100.00
4598;BME280;62772;48.646;8.906;2023-03-04T14:48:31;96661.31;;;0.56;100.00
4598;BME280;62772;48.646;8.906;2023-03-04T14:53:32;96656.66;;;0.29;100.00
4598;BME280;62772;48.646;8.906;2023-03-04T14:58:35;96647.00;;;0.81;100.00
4598;BME280;62772;48.646;8.906;2023-03-04T15:03:36;96650.59;;;0.58;100.00
4598;BME280;62772;48.646;8.906;2023-03-04T15:08:37;96648.66;;;0.70;100.00
4598;BME280;62772;48.646;8.906;2023-03-04T15:13:46;96654.06;;;0.63;100.00
4598;BME280;62772;48.646;8.906;2023-03-04T15:24:06;96656.16;;;0.61;100.00
4598;BME280;62772;48.646;8.906;2023-03-04T15:29:16;96658.63;;;0.51;100.00
4598;BME280;62772;48.646;8.906;2023-03-04T15:34:19;96659.69;;;0.67;100.00
4598;BME280;62772;48.646;8.906;2023-03-04T15:39:20;96659.66;;;0.50;100.00
4598;BME280;62772;48.646;8.906;2023-03-04T15:44:23;96658.19;;;0.42;100.00
4598;BME280;62772;48.646;8.906;2023-03-04T15:49:23;96657.88;;;0.10;100.00
4598;BME280;62772;48.646;8.906;2023-03-04T15:54:27;96659.69;;;0.09;100.00
4598;BME280;62772;48.646;8.906;2023-03-04T15:59:28;96652.50;;;0.05;100.00
4598;BME280;62772;48.646;8.906;2023-03-04T16:04:28;96659.75;;;-0.03;100.00
4598;BME280;62772;48.646;8.906;2023-03-04T16:09:29;96662.50;;;-0.09;100.00
4598;BME280;62772;48.646;8.906;2023-03-04T16:14:29;96669.00;;;0.00;100.00
4598;BME280;62772;48.646;8.906;2023-03-04T16:19:30;96649.25;;;-0.03;100.00
4598;BME280;62772;48.646;8.906;2023-03-04T16:24:33;96652.16;;;0.42;100.00
4598;BME280;62772;48.646;8.906;2023-03-04T16:29:33;96661.00;;;0.24;100.00
4598;BME280;62772;48.646;8.906;2023-03-04T16:34:34;96657.28;;;0.36;100.00
4598;BME280;62772;48.646;8.906;2023-03-04T16:39:35;96656.34;;;0.43;100.00
4598;BME280;62772;48.646;8.906;2023-03-04T16:44:56;96654.31;;;0.45;100.00
4598;BME280;62772;48.646;8.906;2023-03-04T16:49:56;96658.06;;;0.20;100.00
4598;BME280;62772;48.646;8.906;2023-03-04T16:54:58;96648.00;;;0.46;100.00
4598;BME280;62772;48.646;8.906;2023-03-04T16:59:59;96655.78;;;0.41;100.00
4598;BME280;62772;48.646;8.906;2023-03-04T17:05:00;96658.63;;;0.22;100.00
4598;BME280;62772;48.646;8.906;2023-03-04T17:10:01;96662.44;;;0.14;100.00
4598;BME280;62772;48.646;8.906;2023-03-04T17:15:01;96663.41;;;0.25;100.00
4598;BME280;62772;48.646;8.906;2023-03-04T17:20:04;96666.59;;;0.27;100.00
4598;BME280;62772;48.646;8.906;2023-03-04T17:25:06;96676.22;;;0.22;100.00
4598;BME280;62772;48.646;8.906;2023-03-04T17:30:08;96679.44;;;0.41;100.00
4598;BME280;62772;48.646;8.906;2023-03-04T17:35:09;96677.13;;;0.27;100.00
4598;BME280;62772;48.646;8.906;2023-03-04T17:40:10;96683.47;;;0.31;100.00
4598;BME280;62772;48.646;8.906;2023-03-04T17:45:14;96683.38;;;-0.03;100.00
4598;BME280;62772;48.646;8.906;2023-03-04T17:50:15;96689.75;;;0.02;100.00
4598;BME280;62772;48.646;8.906;2023-03-04T17:55:16;96689.78;;;0.30;100.00
4598;BME280;62772;48.646;8.906;2023-03-04T18:00:17;96687.72;;;0.32;100.00
4598;BME280;62772;48.646;8.906;2023-03-04T18:05:18;96685.50;;;0.41;100.00
4598;BME280;62772;48.646;8.906;2023-03-04T18:10:18;96688.41;;;-0.01;100.00
4598;BME280;62772;48.646;8.906;2023-03-04T18:15:19;96689.75;;;0.02;100.00
4598;BME280;62772;48.646;8.906;2023-03-04T18:20:20;96684.84;;;-0.07;100.00
4598;BME280;62772;48.646;8.906;2023-03-04T18:25:20;96676.75;;;-0.05;100.00
4598;BME280;62772;48.646;8.906;2023-03-04T18:30:21;96677.56;;;-0.05;100.00
4598;BME280;62772;48.646;8.906;2023-03-04T18:35:27;96663.16;;;-0.02;100.00
4598;BME280;62772;48.646;8.906;2023-03-04T18:40:28;96664.84;;;0.04;100.00
4598;BME280;62772;48.646;8.906;2023-03-04T18:45:28;96663.59;;;0.07;100.00
4598;BME280;62772;48.646;8.906;2023-03-04T18:50:29;96667.25;;;0.06;100.00
4598;BME280;62772;48.646;8.906;2023-03-04T18:55:29;96662.78;;;0.06;100.00
4598;BME280;62772;48.646;8.906;2023-03-04T19:00:31;96656.75;;;0.06;100.00
4598;BME280;62772;48.646;8.906;2023-03-04T19:05:32;96650.31;;;0.13;100.00
4598;BME280;62772;48.646;8.906;2023-03-04T19:10:33;96640.44;;;0.04;100.00
4598;BME280;62772;48.646;8.906;2023-03-04T19:15:33;96649.09;;;0.04;100.00
4598;BME280;62772;48.646;8.906;2023-03-04T19:20:33;96646.56;;;0.09;100.00
4598;BME280;62772;48.646;8.906;2023-03-04T19:25:36;96647.91;;;0.41;100.00
4598;BME280;62772;48.646;8.906;2023-03-04T19:30:38;96643.38;;;0.36;100.00
4598;BME280;62772;48.646;8.906;2023-03-04T19:35:40;96648.00;;;0.17;100.00
4598;BME280;62772;48.646;8.906;2023-03-04T19:40:41;96639.88;;;0.30;100.00
4598;BME280;62772;48.646;8.906;2023-03-04T19:45:51;96639.47;;;0.39;100.00
4598;BME280;62772;48.646;8.906;2023-03-04T19:50:51;96638.34;;;0.34;100.00
4598;BME280;62772;48.646;8.906;2023-03-04T19:55:51;96638.31;;;0.63;100.00
4598;BME280;62772;48.646;8.906;2023-03-04T20:00:53;96637.38;;;0.86;100.00
4598;BME280;62772;48.646;8.906;2023-03-04T20:06:05;96628.34;;;0.82;100.00
4598;BME280;62772;48.646;8.906;2023-03-04T20:11:10;96635.31;;;0.43;100.00
4598;BME280;62772;48.646;8.906;2023-03-04T20:16:12;96636.84;;;0.39;100.00
4598;BME280;62772;48.646;8.906;2023-03-04T20:21:12;96632.22;;;0.46;100.00
4598;BME280;62772;48.646;8.906;2023-03-04T20:26:13;96641.25;;;0.50;100.00
4598;BME280;62772;48.646;8.906;2023-03-04T20:31:30;96633.88;;;0.64;100.00
4598;BME280;62772;48.646;8.906;2023-03-04T20:36:31;96630.25;;;0.70;100.00
4598;BME280;62772;48.646;8.906;2023-03-04T20:41:33;96632.88;;;0.70;100.00
4598;BME280;62772;48.646;8.906;2023-03-04T20:46:38;96626.84;;;0.69;100.00
4598;BME280;62772;48.646;8.906;2023-03-04T20:51:41;96631.78;;;0.66;100.00
4598;BME280;62772;48.646;8.906;2023-03-04T20:56:41;96634.72;;;0.69;100.00
4598;BME280;62772;48.646;8.906;2023-03-04T21:01:44;96635.75;;;0.85;100.00
4598;BME280;62772;48.646;8.906;2023-03-04T21:06:47;96623.56;;;0.79;100.00
4598;BME280;62772;48.646;8.906;2023-03-04T21:11:50;96620.28;;;1.06;100.00
4598;BME280;62772;48.646;8.906;2023-03-04T21:16:53;96610.81;;;1.05;100.00
4598;BME280;62772;48.646;8.906;2023-03-04T21:21:55;96607.38;;;1.21;100.00
4598;BME280;62772;48.646;8.906;2023-03-04T21:26:56;96595.78;;;1.00;100.00
4598;BME280;62772;48.646;8.906;2023-03-04T21:32:00;96592.03;;;0.79;100.00
4598;BME280;62772;48.646;8.906;2023-03-04T21:37:01;96585.09;;;0.90;100.00
4598;BME280;62772;48.646;8.906;2023-03-04T21:42:02;96586.16;;;0.72;100.00
4598;BME280;62772;48.646;8.906;2023-03-04T21:47:03;96578.63;;;0.98;100.00
4598;BME280;62772;48.646;8.906;2023-03-04T21:52:04;96577.28;;;0.44;100.00
4598;BME280;62772;48.646;8.906;2023-03-04T21:57:04;96578.81;;;0.57;100.00
4598;BME280;62772;48.646;8.906;2023-03-04T22:02:06;96573.53;;;0.23;100.00
4598;BME280;62772;48.646;8.906;2023-03-04T22:07:12;96571.28;;;0.15;100.00
4598;BME280;62772;48.646;8.906;2023-03-04T22:12:13;96575.69;;;0.26;100.00
4598;BME280;62772;48.646;8.906;2023-03-04T22:17:13;96578.97;;;0.05;100.00
4598;BME280;62772;48.646;8.906;2023-03-04T22:22:14;96569.34;;;-0.07;100.00
4598;BME280;62772;48.646;8.906;2023-03-04T22:27:17;96568.47;;;-0.12;100.00
4598;BME280;62772;48.646;8.906;2023-03-04T22:32:17;96568.69;;;-0.14;100.00
4598;BME280;62772;48.646;8.906;2023-03-04T22:37:18;96567.53;;;-0.06;100.00
4598;BME280;62772;48.646;8.906;2023-03-04T22:42:19;96564.81;;;0.51;100.00
4598;BME280;62772;48.646;8.906;2023-03-04T22:47:19;96553.00;;;0.71;100.00
4598;BME280;62772;48.646;8.906;2023-03-04T22:52:21;96548.13;;;0.80;100.00
4598;BME280;62772;48.646;8.906;2023-03-04T22:57:22;96549.88;;;0.91;100.00
4598;BME280;62772;48.646;8.906;2023-03-04T23:02:23;96539.78;;;0.66;100.00
4598;BME280;62772;48.646;8.906;2023-03-04T23:07:23;96540.13;;;0.92;100.00
4598;BME280;62772;48.646;8.906;2023-03-04T23:12:24;96537.75;;;0.90;100.00
4598;BME280;62772;48.646;8.906;2023-03-04T23:17:24;96533.75;;;0.87;100.00
4598;BME280;62772;48.646;8.906;2023-03-04T23:22:25;96526.63;;;1.05;100.00
4598;BME280;62772;48.646;8.906;2023-03-04T23:27:25;96529.03;;;0.67;100.00
4598;BME280;62772;48.646;8.906;2023-03-04T23:32:26;96531.00;;;0.77;100.00
4598;BME280;62772;48.646;8.906;2023-03-04T23:37:26;96521.03;;;0.79;100.00
4598;BME280;62772;48.646;8.906;2023-03-04T23:42:27;96519.88;;;0.36;100.00
4598;BME280;62772;48.646;8.906;2023-03-04T23:47:27;96516.84;;;0.44;100.00
4598;BME280;62772;48.646;8.906;2023-03-04T23:52:28;96509.25;;;0.65;100.00
4598;BME280;62772;48.646;8.906;2023-03-04T23:57:29;96510.31;;;0.64;100.00
